sensor_id;sensor_type;location;lat;lon;timestamp;noise_LAeq;noise_LA_min;noise_LA_max;noise_LA01;noise_LA95
67318;Laerm;57664;51.436;5.980;2023-08-21T00:00:01;31.63;30.58;32.62;;
67318;Laerm;57664;51.436;5.980;2023-08-21T00:00:12;31.69;30.65;32.64;;
67318;Laerm;57664;51.436;5.980;2023-08-21T00:00:23;31.60;30.38;32.81;;
67318;Laerm;57664;51.436;5.980;2023-08-21T00:00:34;31.68;30.36;32.70;;
67318;Laerm;57664;51.436;5.980;2023-08-21T00:00:45;31.63;30.39;32.70;;
67318;Laerm;57664;51.436;5.980;2023-08-21T00:01:04;31.65;30.47;32.71;;
67318;Laerm;57664;51.436;5.980;2023-08-21T00:01:14;31.63;30.62;32.60;;
67318;Laerm;57664;51.436;5.980;2023-08-21T00:01:28;31.64;30.39;32.65;;
67318;Laerm;57664;51.436;5.980;2023-08-21T00:01:38;31.62;30.66;32.72;;
67318;Laerm;57664;51.436;5.980;2023-08-21T00:01:49;31.62;30.48;32.64;;
67318;Laerm;57664;51.436;5.980;2023-08-21T00:01:59;31.64;30.67;32.80;;
67318;Laerm;57664;51.436;5.980;2023-08-21T00:02:09;31.64;30.47;32.61;;
67318;Laerm;57664;51.436;5.980;2023-08-21T00:02:20;31.62;30.33;33.05;;
67318;Laerm;57664;51.436;5.980;2023-08-21T00:02:31;31.59;30.40;32.56;;
67318;Laerm;57664;51.436;5.980;2023-08-21T00:02:41;31.63;30.59;32.92;;
67318;Laerm;57664;51.436;5.980;2023-08-21T00:02:52;31.59;30.42;32.80;;
67318;Laerm;57664;51.436;5.980;2023-08-21T00:03:02;31.61;30.58;32.62;;
67318;Laerm;57664;51.436;5.980;2023-08-21T00:03:12;31.59;30.30;32.57;;
67318;Laerm;57664;51.436;5.980;2023-08-21T00:03:23;31.58;30.61;32.57;;
67318;Laerm;57664;51.436;5.980;2023-08-21T00:03:33;31.60;30.63;32.56;;
67318;Laerm;57664;51.436;5.980;2023-08-21T00:03:44;31.59;30.47;32.65;;
67318;Laerm;57664;51.436;5.980;2023-08-21T00:03:54;31.56;30.49;32.69;;
67318;Laerm;57664;51.436;5.980;2023-08-21T00:04:07;31.56;30.60;32.48;;
67318;Laerm;57664;51.436;5.980;2023-08-21T00:04:17;31.57;30.65;32.72;;
67318;Laerm;57664;51.436;5.980;2023-08-21T00:04:28;31.56;30.41;32.47;;
67318;Laerm;57664;51.436;5.980;2023-08-21T00:04:38;31.56;30.50;32.76;;
67318;Laerm;57664;51.436;5.980;2023-08-21T00:04:51;31.55;30.60;32.57;;
67318;Laerm;57664;51.436;5.980;2023-08-21T00:05:02;31.55;30.03;32.48;;
67318;Laerm;57664;51.436;5.980;2023-08-21T00:05:12;31.56;30.36;32.56;;
67318;Laerm;57664;51.436;5.980;2023-08-21T00:05:23;31.56;30.61;32.47;;
67318;Laerm;57664;51.436;5.980;2023-08-21T00:05:34;31.53;30.60;32.60;;
67318;Laerm;57664;51.436;5.980;2023-08-21T00:05:49;31.54;30.38;32.65;;
67318;Laerm;57664;51.436;5.980;2023-08-21T00:06:00;31.57;30.40;32.50;;
67318;Laerm;57664;51.436;5.980;2023-08-21T00:06:10;31.58;30.46;32.68;;
67318;Laerm;57664;51.436;5.980;2023-08-21T00:06:20;31.54;30.49;32.39;;
67318;Laerm;57664;51.436;5.980;2023-08-21T00:06:31;31.56;30.63;32.71;;
67318;Laerm;57664;51.436;5.980;2023-08-21T00:06:44;31.53;30.51;32.62;;
67318;Laerm;57664;51.436;5.980;2023-08-21T00:06:54;31.55;30.58;32.41;;
67318;Laerm;57664;51.436;5.980;2023-08-21T00:07:05;31.52;30.29;32.39;;
67318;Laerm;57664;51.436;5.980;2023-08-21T00:07:16;31.49;30.45;32.66;;
67318;Laerm;57664;51.436;5.980;2023-08-21T00:07:26;31.48;30.48;32.46;;
67318;Laerm;57664;51.436;5.980;2023-08-21T00:07:37;31.45;30.61;32.42;;
67318;Laerm;57664;51.436;5.980;2023-08-21T00:07:47;31.48;30.57;32.49;;
67318;Laerm;57664;51.436;5.980;2023-08-21T00:08:04;31.46;30.34;32.71;;
67318;Laerm;57664;51.436;5.980;2023-08-21T00:08:14;31.46;30.36;32.29;;
67318;Laerm;57664;51.436;5.980;2023-08-21T00:08:36;31.43;30.38;32.80;;
67318;Laerm;57664;51.436;5.980;2023-08-21T00:08:50;31.42;29.90;32.52;;
67318;Laerm;57664;51.436;5.980;2023-08-21T00:09:06;31.41;30.30;32.63;;
67318;Laerm;57664;51.436;5.980;2023-08-21T00:09:16;31.38;30.20;32.42;;
67318;Laerm;57664;51.436;5.980;2023-08-21T00:09:29;31.38;30.38;32.37;;
67318;Laerm;57664;51.436;5.980;2023-08-21T00:09:43;31.41;30.40;32.27;;
67318;Laerm;57664;51.436;5.980;2023-08-21T00:09:53;31.36;30.19;32.26;;
67318;Laerm;57664;51.436;5.980;2023-08-21T00:10:04;31.39;30.34;32.31;;
67318;Laerm;57664;51.436;5.980;2023-08-21T00:10:15;31.38;30.38;32.54;;
67318;Laerm;57664;51.436;5.980;2023-08-21T00:10:25;31.37;30.43;32.31;;
67318;Laerm;57664;51.436;5.980;2023-08-21T00:10:38;31.34;30.10;32.57;;
67318;Laerm;57664;51.436;5.980;2023-08-21T00:10:52;31.33;30.15;32.31;;
67318;Laerm;57664;51.436;5.980;2023-08-21T00:11:02;31.31;30.33;32.25;;
67318;Laerm;57664;51.436;5.980;2023-08-21T00:11:13;31.33;30.13;32.32;;
67318;Laerm;57664;51.436;5.980;2023-08-21T00:11:23;31.32;30.17;32.55;;
67318;Laerm;57664;51.436;5.980;2023-08-21T00:11:34;31.34;30.24;32.37;;
67318;Laerm;57664;51.436;5.980;2023-08-21T00:11:54;31.34;30.32;32.26;;
67318;Laerm;57664;51.436;5.980;2023-08-21T00:12:05;31.31;30.13;32.35;;
67318;Laerm;57664;51.436;5.980;2023-08-21T00:12:16;31.29;30.23;32.16;;
67318;Laerm;57664;51.436;5.980;2023-08-21T00:12:26;31.30;30.29;32.25;;
67318;Laerm;57664;51.436;5.980;2023-08-21T00:12:36;31.32;30.07;32.45;;
67318;Laerm;57664;51.436;5.980;2023-08-21T00:12:47;31.32;30.11;32.19;;
67318;Laerm;57664;51.436;5.980;2023-08-21T00:12:57;31.37;29.94;32.17;;
67318;Laerm;57664;51.436;5.980;2023-08-21T00:13:07;31.30;29.90;32.34;;
67318;Laerm;57664;51.436;5.980;2023-08-21T00:13:18;31.33;30.28;32.41;;
67318;Laerm;57664;51.436;5.980;2023-08-21T00:13:29;31.31;29.97;32.11;;
67318;Laerm;57664;51.436;5.980;2023-08-21T00:13:39;31.30;30.26;32.16;;
67318;Laerm;57664;51.436;5.980;2023-08-21T00:13:49;31.27;30.09;32.59;;
67318;Laerm;57664;51.436;5.980;2023-08-21T00:14:00;31.30;30.06;32.41;;
67318;Laerm;57664;51.436;5.980;2023-08-21T00:14:10;31.25;30.06;32.08;;
67318;Laerm;57664;51.436;5.980;2023-08-21T00:14:20;31.23;30.23;32.17;;
67318;Laerm;57664;51.436;5.980;2023-08-21T00:14:31;31.26;30.27;32.24;;
67318;Laerm;57664;51.436;5.980;2023-08-21T00:14:41;31.26;29.85;32.03;;
67318;Laerm;57664;51.436;5.980;2023-08-21T00:14:53;31.26;30.04;32.33;;
67318;Laerm;57664;51.436;5.980;2023-08-21T00:15:03;31.22;30.12;32.16;;
67318;Laerm;57664;51.436;5.980;2023-08-21T00:15:14;31.22;30.16;32.19;;
67318;Laerm;57664;51.436;5.980;2023-08-21T00:15:24;31.30;30.14;32.51;;
67318;Laerm;57664;51.436;5.980;2023-08-21T00:15:37;31.27;30.46;32.50;;
67318;Laerm;57664;51.436;5.980;2023-08-21T00:15:47;31.30;30.01;32.29;;
67318;Laerm;57664;51.436;5.980;2023-08-21T00:16:01;31.31;30.19;32.30;;
67318;Laerm;57664;51.436;5.980;2023-08-21T00:16:11;31.29;30.08;32.31;;
67318;Laerm;57664;51.436;5.980;2023-08-21T00:16:22;31.29;29.92;32.35;;
67318;Laerm;57664;51.436;5.980;2023-08-21T00:16:32;31.26;30.28;32.29;;
67318;Laerm;57664;51.436;5.980;2023-08-21T00:16:42;31.31;30.01;32.10;;
67318;Laerm;57664;51.436;5.980;2023-08-21T00:16:52;31.29;30.34;32.45;;
67318;Laerm;57664;51.436;5.980;2023-08-21T00:17:03;31.30;30.25;32.37;;
67318;Laerm;57664;51.436;5.980;2023-08-21T00:17:13;31.36;30.29;32.46;;
67318;Laerm;57664;51.436;5.980;2023-08-21T00:17:24;31.34;30.46;32.15;;
67318;Laerm;57664;51.436;5.980;2023-08-21T00:17:34;31.38;30.30;32.31;;
67318;Laerm;57664;51.436;5.980;2023-08-21T00:17:44;31.40;30.56;32.36;;
67318;Laerm;57664;51.436;5.980;2023-08-21T00:17:59;31.39;30.33;32.52;;
67318;Laerm;57664;51.436;5.980;2023-08-21T00:18:10;31.36;30.39;32.36;;
67318;Laerm;57664;51.436;5.980;2023-08-21T00:18:21;31.40;30.21;32.44;;
67318;Laerm;57664;51.436;5.980;2023-08-21T00:18:32;31.40;30.37;32.38;;
67318;Laerm;57664;51.436;5.980;2023-08-21T00:18:42;31.40;30.33;32.65;;
67318;Laerm;57664;51.436;5.980;2023-08-21T00:18:52;31.36;30.23;32.51;;
67318;Laerm;57664;51.436;5.980;2023-08-21T00:19:03;31.38;30.35;32.33;;
67318;Laerm;57664;51.436;5.980;2023-08-21T00:19:13;31.42;30.44;32.46;;
67318;Laerm;57664;51.436;5.980;2023-08-21T00:19:23;31.41;30.50;32.49;;
67318;Laerm;57664;51.436;5.980;2023-08-21T00:19:34;31.39;30.41;32.69;;
67318;Laerm;57664;51.436;5.980;2023-08-21T00:19:44;31.44;30.46;32.56;;
67318;Laerm;57664;51.436;5.980;2023-08-21T00:19:55;31.39;30.31;32.34;;
67318;Laerm;57664;51.436;5.980;2023-08-21T00:20:07;31.42;30.14;32.39;;
67318;Laerm;57664;51.436;5.980;2023-08-21T00:20:22;31.40;30.37;32.57;;
67318;Laerm;57664;51.436;5.980;2023-08-21T00:20:32;31.47;30.26;32.58;;
67318;Laerm;57664;51.436;5.980;2023-08-21T00:20:43;31.73;30.47;33.35;;
67318;Laerm;57664;51.436;5.980;2023-08-21T00:20:53;31.81;30.30;33.78;;
67318;Laerm;57664;51.436;5.980;2023-08-21T00:21:06;31.58;30.42;32.65;;
67318;Laerm;57664;51.436;5.980;2023-08-21T00:21:17;31.61;30.28;32.66;;
67318;Laerm;57664;51.436;5.980;2023-08-21T00:21:27;33.89;30.54;41.51;;
67318;Laerm;57664;51.436;5.980;2023-08-21T00:21:38;31.53;30.31;32.64;;
67318;Laerm;57664;51.436;5.980;2023-08-21T00:21:49;31.40;30.54;32.35;;
67318;Laerm;57664;51.436;5.980;2023-08-21T00:22:00;31.44;30.30;32.25;;
67318;Laerm;57664;51.436;5.980;2023-08-21T00:22:10;31.50;30.56;32.49;;
67318;Laerm;57664;51.436;5.980;2023-08-21T00:22:21;31.46;30.41;32.47;;
67318;Laerm;57664;51.436;5.980;2023-08-21T00:22:31;31.47;30.51;32.40;;
67318;Laerm;57664;51.436;5.980;2023-08-21T00:22:41;31.42;30.19;32.61;;
67318;Laerm;57664;51.436;5.980;2023-08-21T00:22:52;31.47;30.40;32.41;;
67318;Laerm;57664;51.436;5.980;2023-08-21T00:23:02;31.51;30.32;32.43;;
67318;Laerm;57664;51.436;5.980;2023-08-21T00:23:12;31.49;30.54;32.62;;
67318;Laerm;57664;51.436;5.980;2023-08-21T00:23:23;31.43;30.44;32.27;;
67318;Laerm;57664;51.436;5.980;2023-08-21T00:23:33;31.49;30.38;32.55;;
67318;Laerm;57664;51.436;5.980;2023-08-21T00:23:43;31.47;30.23;32.44;;
67318;Laerm;57664;51.436;5.980;2023-08-21T00:23:55;31.48;30.55;32.38;;
67318;Laerm;57664;51.436;5.980;2023-08-21T00:24:05;31.45;30.38;32.44;;
67318;Laerm;57664;51.436;5.980;2023-08-21T00:24:15;31.51;30.45;32.50;;
67318;Laerm;57664;51.436;5.980;2023-08-21T00:24:26;31.45;30.26;32.62;;
67318;Laerm;57664;51.436;5.980;2023-08-21T00:24:36;31.49;30.31;32.35;;
67318;Laerm;57664;51.436;5.980;2023-08-21T00:24:46;31.46;30.52;32.42;;
67318;Laerm;57664;51.436;5.980;2023-08-21T00:24:57;31.46;30.33;32.53;;
67318;Laerm;57664;51.436;5.980;2023-08-21T00:25:10;31.51;30.40;32.67;;
67318;Laerm;57664;51.436;5.980;2023-08-21T00:25:21;31.47;30.49;32.59;;
67318;Laerm;57664;51.436;5.980;2023-08-21T00:25:32;31.48;30.48;32.52;;
67318;Laerm;57664;51.436;5.980;2023-08-21T00:25:46;31.48;30.25;32.54;;
67318;Laerm;57664;51.436;5.980;2023-08-21T00:26:00;31.45;30.21;32.62;;
67318;Laerm;57664;51.436;5.980;2023-08-21T00:26:10;31.50;30.36;32.48;;
67318;Laerm;57664;51.436;5.980;2023-08-21T00:26:20;31.46;30.39;32.41;;
67318;Laerm;57664;51.436;5.980;2023-08-21T00:26:31;31.49;30.48;32.90;;
67318;Laerm;57664;51.436;5.980;2023-08-21T00:26:44;31.52;30.46;32.58;;
67318;Laerm;57664;51.436;5.980;2023-08-21T00:26:54;31.54;30.63;32.43;;
67318;Laerm;57664;51.436;5.980;2023-08-21T00:27:05;31.49;29.99;32.47;;
67318;Laerm;57664;51.436;5.980;2023-08-21T00:27:15;31.51;30.30;32.38;;
67318;Laerm;57664;51.436;5.980;2023-08-21T00:27:25;31.50;30.54;32.45;;
67318;Laerm;57664;51.436;5.980;2023-08-21T00:27:36;31.54;30.52;32.58;;
67318;Laerm;57664;51.436;5.980;2023-08-21T00:27:46;31.51;29.79;32.39;;
67318;Laerm;57664;51.436;5.980;2023-08-21T00:27:56;31.51;30.45;32.58;;
67318;Laerm;57664;51.436;5.980;2023-08-21T00:28:07;31.51;30.53;32.57;;
67318;Laerm;57664;51.436;5.980;2023-08-21T00:28:20;31.51;30.31;32.53;;
67318;Laerm;57664;51.436;5.980;2023-08-21T00:28:31;31.52;30.50;32.51;;
67318;Laerm;57664;51.436;5.980;2023-08-21T00:28:43;31.56;30.52;32.52;;
67318;Laerm;57664;51.436;5.980;2023-08-21T00:28:53;31.52;30.49;32.56;;
67318;Laerm;57664;51.436;5.980;2023-08-21T00:29:04;31.55;30.37;32.60;;
67318;Laerm;57664;51.436;5.980;2023-08-21T00:29:17;31.53;30.51;32.50;;
67318;Laerm;57664;51.436;5.980;2023-08-21T00:29:28;31.51;30.49;32.38;;
67318;Laerm;57664;51.436;5.980;2023-08-21T00:29:41;31.48;30.44;32.59;;
67318;Laerm;57664;51.436;5.980;2023-08-21T00:29:52;31.51;30.42;32.72;;
67318;Laerm;57664;51.436;5.980;2023-08-21T00:30:02;31.54;30.47;32.59;;
67318;Laerm;57664;51.436;5.980;2023-08-21T00:30:12;31.48;30.51;32.52;;
67318;Laerm;57664;51.436;5.980;2023-08-21T00:30:25;31.51;30.28;32.38;;
67318;Laerm;57664;51.436;5.980;2023-08-21T00:30:35;31.48;30.35;32.53;;
67318;Laerm;57664;51.436;5.980;2023-08-21T00:30:45;31.50;30.44;32.56;;
67318;Laerm;57664;51.436;5.980;2023-08-21T00:31:02;31.48;30.42;32.49;;
67318;Laerm;57664;51.436;5.980;2023-08-21T00:31:13;31.47;30.21;32.43;;
67318;Laerm;57664;51.436;5.980;2023-08-21T00:31:24;31.47;30.21;32.47;;
67318;Laerm;57664;51.436;5.980;2023-08-21T00:31:34;31.49;30.45;32.53;;
67318;Laerm;57664;51.436;5.980;2023-08-21T00:31:44;31.48;30.29;32.55;;
67318;Laerm;57664;51.436;5.980;2023-08-21T00:31:55;31.45;30.56;32.38;;
67318;Laerm;57664;51.436;5.980;2023-08-21T00:32:05;31.50;30.50;32.66;;
67318;Laerm;57664;51.436;5.980;2023-08-21T00:32:16;31.49;30.49;32.83;;
67318;Laerm;57664;51.436;5.980;2023-08-21T00:32:26;31.45;30.52;32.44;;
67318;Laerm;57664;51.436;5.980;2023-08-21T00:32:37;31.46;30.51;32.45;;
67318;Laerm;57664;51.436;5.980;2023-08-21T00:32:47;31.43;30.44;32.44;;
67318;Laerm;57664;51.436;5.980;2023-08-21T00:32:57;31.46;30.35;32.40;;
67318;Laerm;57664;51.436;5.980;2023-08-21T00:33:07;31.43;30.37;32.58;;
67318;Laerm;57664;51.436;5.980;2023-08-21T00:33:18;31.45;30.25;32.46;;
67318;Laerm;57664;51.436;5.980;2023-08-21T00:33:29;31.45;30.27;32.54;;
67318;Laerm;57664;51.436;5.980;2023-08-21T00:33:39;31.46;30.03;32.70;;
67318;Laerm;57664;51.436;5.980;2023-08-21T00:33:52;31.44;30.40;32.60;;
67318;Laerm;57664;51.436;5.980;2023-08-21T00:34:03;31.44;30.43;32.51;;
67318;Laerm;57664;51.436;5.980;2023-08-21T00:34:13;31.48;30.50;32.43;;
67318;Laerm;57664;51.436;5.980;2023-08-21T00:34:23;31.44;30.39;32.95;;
67318;Laerm;57664;51.436;5.980;2023-08-21T00:34:33;31.42;30.19;32.40;;
67318;Laerm;57664;51.436;5.980;2023-08-21T00:34:44;31.46;30.34;32.54;;
67318;Laerm;57664;51.436;5.980;2023-08-21T00:34:54;31.44;30.36;32.36;;
67318;Laerm;57664;51.436;5.980;2023-08-21T00:35:07;31.45;30.34;32.33;;
67318;Laerm;57664;51.436;5.980;2023-08-21T00:35:18;31.42;30.15;32.41;;
67318;Laerm;57664;51.436;5.980;2023-08-21T00:35:28;31.42;30.19;32.36;;
67318;Laerm;57664;51.436;5.980;2023-08-21T00:35:39;31.47;30.21;32.31;;
67318;Laerm;57664;51.436;5.980;2023-08-21T00:35:49;31.44;30.36;32.35;;
67318;Laerm;57664;51.436;5.980;2023-08-21T00:36:00;31.44;30.13;32.63;;
67318;Laerm;57664;51.436;5.980;2023-08-21T00:36:10;31.43;30.16;32.42;;
67318;Laerm;57664;51.436;5.980;2023-08-21T00:36:20;31.40;30.55;32.45;;
67318;Laerm;57664;51.436;5.980;2023-08-21T00:36:31;31.45;30.46;32.41;;
67318;Laerm;57664;51.436;5.980;2023-08-21T00:36:41;31.38;30.17;32.67;;
67318;Laerm;57664;51.436;5.980;2023-08-21T00:36:52;31.46;30.40;32.39;;
67318;Laerm;57664;51.436;5.980;2023-08-21T00:37:02;31.41;30.53;32.25;;
67318;Laerm;57664;51.436;5.980;2023-08-21T00:37:12;31.47;29.97;32.52;;
67318;Laerm;57664;51.436;5.980;2023-08-21T00:37:23;31.46;30.42;32.64;;
67318;Laerm;57664;51.436;5.980;2023-08-21T00:37:33;31.42;30.09;32.51;;
67318;Laerm;57664;51.436;5.980;2023-08-21T00:37:43;31.46;30.43;32.34;;
67318;Laerm;57664;51.436;5.980;2023-08-21T00:37:54;31.48;30.49;32.44;;
67318;Laerm;57664;51.436;5.980;2023-08-21T00:38:04;31.45;30.19;32.51;;
67318;Laerm;57664;51.436;5.980;2023-08-21T00:38:17;31.46;30.32;32.52;;
67318;Laerm;57664;51.436;5.980;2023-08-21T00:38:27;31.47;30.36;32.61;;
67318;Laerm;57664;51.436;5.980;2023-08-21T00:38:37;31.50;30.57;32.45;;
67318;Laerm;57664;51.436;5.980;2023-08-21T00:38:48;31.46;30.12;32.31;;
67318;Laerm;57664;51.436;5.980;2023-08-21T00:38:58;31.48;30.44;32.54;;
67318;Laerm;57664;51.436;5.980;2023-08-21T00:39:14;31.48;30.19;32.42;;
67318;Laerm;57664;51.436;5.980;2023-08-21T00:39:25;31.50;30.20;32.64;;
67318;Laerm;57664;51.436;5.980;2023-08-21T00:39:35;31.46;30.39;32.28;;
67318;Laerm;57664;51.436;5.980;2023-08-21T00:39:45;31.45;30.10;32.29;;
67318;Laerm;57664;51.436;5.980;2023-08-21T00:39:55;31.51;30.43;32.47;;
67318;Laerm;57664;51.436;5.980;2023-08-21T00:40:06;31.49;30.34;32.48;;
67318;Laerm;57664;51.436;5.980;2023-08-21T00:40:16;31.45;30.47;32.34;;
67318;Laerm;57664;51.436;5.980;2023-08-21T00:40:27;31.48;30.40;32.51;;
67318;Laerm;57664;51.436;5.980;2023-08-21T00:40:40;31.47;30.14;32.48;;
67318;Laerm;57664;51.436;5.980;2023-08-21T00:40:56;31.45;30.27;32.36;;
67318;Laerm;57664;51.436;5.980;2023-08-21T00:41:07;31.48;30.43;32.56;;
67318;Laerm;57664;51.436;5.980;2023-08-21T00:41:18;31.48;30.46;32.60;;
67318;Laerm;57664;51.436;5.980;2023-08-21T00:41:28;31.49;30.61;32.48;;
67318;Laerm;57664;51.436;5.980;2023-08-21T00:41:38;31.53;30.32;32.68;;
67318;Laerm;57664;51.436;5.980;2023-08-21T00:41:49;31.50;30.28;32.59;;
67318;Laerm;57664;51.436;5.980;2023-08-21T00:41:59;31.51;30.48;32.45;;
67318;Laerm;57664;51.436;5.980;2023-08-21T00:42:09;31.51;30.43;32.55;;
67318;Laerm;57664;51.436;5.980;2023-08-21T00:42:20;31.51;30.41;32.41;;
67318;Laerm;57664;51.436;5.980;2023-08-21T00:42:30;31.49;30.43;32.70;;
67318;Laerm;57664;51.436;5.980;2023-08-21T00:42:40;31.45;30.38;32.41;;
67318;Laerm;57664;51.436;5.980;2023-08-21T00:42:50;31.47;30.35;32.48;;
67318;Laerm;57664;51.436;5.980;2023-08-21T00:43:01;31.45;30.41;32.32;;
67318;Laerm;57664;51.436;5.980;2023-08-21T00:43:13;31.44;30.42;32.36;;
67318;Laerm;57664;51.436;5.980;2023-08-21T00:43:23;31.42;29.89;32.24;;
67318;Laerm;57664;51.436;5.980;2023-08-21T00:43:34;31.38;30.31;32.28;;
67318;Laerm;57664;51.436;5.980;2023-08-21T00:43:44;31.42;30.48;32.32;;
67318;Laerm;57664;51.436;5.980;2023-08-21T00:43:54;31.40;30.30;32.51;;
67318;Laerm;57664;51.436;5.980;2023-08-21T00:44:05;31.41;30.34;32.28;;
67318;Laerm;57664;51.436;5.980;2023-08-21T00:44:15;31.36;30.14;32.33;;
67318;Laerm;57664;51.436;5.980;2023-08-21T00:44:25;31.40;30.55;32.32;;
67318;Laerm;57664;51.436;5.980;2023-08-21T00:44:35;31.38;30.61;32.48;;
67318;Laerm;57664;51.436;5.980;2023-08-21T00:44:46;31.34;29.91;32.69;;
67318;Laerm;57664;51.436;5.980;2023-08-21T00:44:56;31.35;30.17;32.30;;
67318;Laerm;57664;51.436;5.980;2023-08-21T00:45:06;31.36;30.25;32.49;;
67318;Laerm;57664;51.436;5.980;2023-08-21T00:45:18;31.35;30.36;32.44;;
67318;Laerm;57664;51.436;5.980;2023-08-21T00:45:28;31.37;30.40;32.43;;
67318;Laerm;57664;51.436;5.980;2023-08-21T00:45:39;31.39;30.23;32.41;;
67318;Laerm;57664;51.436;5.980;2023-08-21T00:45:51;31.38;30.23;32.44;;
67318;Laerm;57664;51.436;5.980;2023-08-21T00:46:01;31.36;30.42;32.17;;
67318;Laerm;57664;51.436;5.980;2023-08-21T00:46:13;31.37;30.34;32.38;;
67318;Laerm;57664;51.436;5.980;2023-08-21T00:46:23;31.34;30.41;32.54;;
67318;Laerm;57664;51.436;5.980;2023-08-21T00:46:34;31.36;30.39;32.25;;
67318;Laerm;57664;51.436;5.980;2023-08-21T00:46:44;31.35;30.34;32.26;;
67318;Laerm;57664;51.436;5.980;2023-08-21T00:46:54;31.35;30.34;32.35;;
67318;Laerm;57664;51.436;5.980;2023-08-21T00:47:05;31.38;30.41;32.55;;
67318;Laerm;57664;51.436;5.980;2023-08-21T00:47:15;31.40;30.31;32.44;;
67318;Laerm;57664;51.436;5.980;2023-08-21T00:47:26;31.39;30.41;32.24;;
67318;Laerm;57664;51.436;5.980;2023-08-21T00:47:36;31.32;30.43;32.44;;
67318;Laerm;57664;51.436;5.980;2023-08-21T00:47:47;31.38;30.26;32.38;;
67318;Laerm;57664;51.436;5.980;2023-08-21T00:47:57;31.39;30.50;32.63;;
67318;Laerm;57664;51.436;5.980;2023-08-21T00:48:08;31.39;30.33;32.34;;
67318;Laerm;57664;51.436;5.980;2023-08-21T00:48:18;31.35;30.01;32.26;;
67318;Laerm;57664;51.436;5.980;2023-08-21T00:48:29;31.32;30.31;32.35;;
67318;Laerm;57664;51.436;5.980;2023-08-21T00:48:40;31.31;30.31;32.45;;
67318;Laerm;57664;51.436;5.980;2023-08-21T00:48:50;31.38;30.28;32.38;;
67318;Laerm;57664;51.436;5.980;2023-08-21T00:49:01;31.34;30.41;32.42;;
67318;Laerm;57664;51.436;5.980;2023-08-21T00:49:18;31.34;30.46;32.45;;
67318;Laerm;57664;51.436;5.980;2023-08-21T00:49:29;31.33;30.33;32.20;;
67318;Laerm;57664;51.436;5.980;2023-08-21T00:49:39;31.28;30.22;32.23;;
67318;Laerm;57664;51.436;5.980;2023-08-21T00:49:50;31.32;30.27;32.25;;
67318;Laerm;57664;51.436;5.980;2023-08-21T00:50:01;31.35;30.25;32.34;;
67318;Laerm;57664;51.436;5.980;2023-08-21T00:50:12;31.30;30.40;32.14;;
67318;Laerm;57664;51.436;5.980;2023-08-21T00:50:22;31.31;30.31;32.18;;
67318;Laerm;57664;51.436;5.980;2023-08-21T00:50:33;31.30;30.37;32.47;;
67318;Laerm;57664;51.436;5.980;2023-08-21T00:50:46;31.38;30.16;32.47;;
67318;Laerm;57664;51.436;5.980;2023-08-21T00:50:57;31.83;30.71;33.48;;
67318;Laerm;57664;51.436;5.980;2023-08-21T00:51:08;31.44;30.24;32.46;;
67318;Laerm;57664;51.436;5.980;2023-08-21T00:51:21;31.44;30.44;32.37;;
67318;Laerm;57664;51.436;5.980;2023-08-21T00:51:32;31.42;30.36;32.27;;
67318;Laerm;57664;51.436;5.980;2023-08-21T00:51:42;39.14;30.69;43.20;;
67318;Laerm;57664;51.436;5.980;2023-08-21T00:51:53;41.14;38.28;44.24;;
67318;Laerm;57664;51.436;5.980;2023-08-21T00:52:03;40.53;30.93;48.60;;
67318;Laerm;57664;51.436;5.980;2023-08-21T00:52:14;31.37;30.08;32.30;;
67318;Laerm;57664;51.436;5.980;2023-08-21T00:52:24;31.26;30.35;32.25;;
67318;Laerm;57664;51.436;5.980;2023-08-21T00:52:35;31.26;30.19;32.16;;
67318;Laerm;57664;51.436;5.980;2023-08-21T00:52:46;31.27;30.29;32.20;;
67318;Laerm;57664;51.436;5.980;2023-08-21T00:52:57;31.35;30.10;32.65;;
67318;Laerm;57664;51.436;5.980;2023-08-21T00:53:07;31.28;29.73;32.38;;
67318;Laerm;57664;51.436;5.980;2023-08-21T00:53:17;31.30;30.15;32.34;;
67318;Laerm;57664;51.436;5.980;2023-08-21T00:53:28;31.27;30.15;32.16;;
67318;Laerm;57664;51.436;5.980;2023-08-21T00:53:38;31.31;30.20;32.38;;
67318;Laerm;57664;51.436;5.980;2023-08-21T00:53:48;31.30;30.20;32.44;;
67318;Laerm;57664;51.436;5.980;2023-08-21T00:53:59;31.31;30.16;32.26;;
67318;Laerm;57664;51.436;5.980;2023-08-21T00:54:09;31.33;30.36;32.27;;
67318;Laerm;57664;51.436;5.980;2023-08-21T00:54:20;31.33;30.17;32.43;;
67318;Laerm;57664;51.436;5.980;2023-08-21T00:54:33;31.32;30.15;32.30;;
67318;Laerm;57664;51.436;5.980;2023-08-21T00:54:44;31.35;30.23;32.34;;
67318;Laerm;57664;51.436;5.980;2023-08-21T00:54:54;31.31;30.13;32.26;;
67318;Laerm;57664;51.436;5.980;2023-08-21T00:55:06;31.34;30.22;32.37;;
67318;Laerm;57664;51.436;5.980;2023-08-21T00:55:17;31.30;30.30;32.34;;
67318;Laerm;57664;51.436;5.980;2023-08-21T00:55:31;31.37;30.19;32.58;;
67318;Laerm;57664;51.436;5.980;2023-08-21T00:55:41;31.38;30.18;32.34;;
67318;Laerm;57664;51.436;5.980;2023-08-21T00:55:52;31.37;30.31;32.40;;
67318;Laerm;57664;51.436;5.980;2023-08-21T00:56:03;31.31;30.11;32.29;;
67318;Laerm;57664;51.436;5.980;2023-08-21T00:56:14;31.39;30.33;32.34;;
67318;Laerm;57664;51.436;5.980;2023-08-21T00:56:25;31.41;30.13;32.60;;
67318;Laerm;57664;51.436;5.980;2023-08-21T00:56:35;31.41;30.47;32.48;;
67318;Laerm;57664;51.436;5.980;2023-08-21T00:56:45;31.35;30.06;32.31;;
67318;Laerm;57664;51.436;5.980;2023-08-21T00:56:56;31.43;30.27;32.56;;
67318;Laerm;57664;51.436;5.980;2023-08-21T00:57:06;31.36;30.34;32.41;;
67318;Laerm;57664;51.436;5.980;2023-08-21T00:57:17;31.37;30.20;32.20;;
67318;Laerm;57664;51.436;5.980;2023-08-21T00:57:27;31.38;30.21;32.37;;
67318;Laerm;57664;51.436;5.980;2023-08-21T00:57:38;31.37;30.27;32.34;;
67318;Laerm;57664;51.436;5.980;2023-08-21T00:57:48;31.40;30.46;32.39;;
67318;Laerm;57664;51.436;5.980;2023-08-21T00:57:58;31.44;30.53;32.35;;
67318;Laerm;57664;51.436;5.980;2023-08-21T00:58:10;31.40;30.27;32.42;;
67318;Laerm;57664;51.436;5.980;2023-08-21T00:58:23;31.41;30.34;32.35;;
67318;Laerm;57664;51.436;5.980;2023-08-21T00:58:33;31.44;30.00;32.32;;
67318;Laerm;57664;51.436;5.980;2023-08-21T00:58:44;31.40;30.42;32.40;;
67318;Laerm;57664;51.436;5.980;2023-08-21T00:58:54;31.41;30.12;32.67;;
67318;Laerm;57664;51.436;5.980;2023-08-21T00:59:05;31.42;30.36;32.28;;
67318;Laerm;57664;51.436;5.980;2023-08-21T00:59:15;31.45;30.35;32.41;;
67318;Laerm;57664;51.436;5.980;2023-08-21T00:59:26;31.42;29.94;32.22;;
67318;Laerm;57664;51.436;5.980;2023-08-21T00:59:37;31.45;30.32;32.84;;
67318;Laerm;57664;51.436;5.980;2023-08-21T00:59:48;31.47;30.36;32.53;;
67318;Laerm;57664;51.436;5.980;2023-08-21T00:59:59;31.43;30.21;32.41;;
67318;Laerm;57664;51.436;5.980;2023-08-21T01:00:10;31.52;30.52;32.67;;
67318;Laerm;57664;51.436;5.980;2023-08-21T01:00:20;31.47;30.27;32.76;;
67318;Laerm;57664;51.436;5.980;2023-08-21T01:00:32;31.51;30.25;32.55;;
67318;Laerm;57664;51.436;5.980;2023-08-21T01:00:45;31.53;30.55;32.37;;
67318;Laerm;57664;51.436;5.980;2023-08-21T01:00:58;31.52;30.43;32.56;;
67318;Laerm;57664;51.436;5.980;2023-08-21T01:01:08;31.50;30.45;32.54;;
67318;Laerm;57664;51.436;5.980;2023-08-21T01:01:19;31.52;30.54;32.41;;
67318;Laerm;57664;51.436;5.980;2023-08-21T01:01:32;31.47;30.40;32.53;;